createdAt,value
2023-01-29T00:01:09.995Z,18.55
2023-01-29T00:03:37.539Z,13.47
2023-01-29T00:06:05.201Z,12.87
2023-01-29T00:08:36.078Z,12.93
2023-01-29T00:11:03.613Z,11.83
2023-01-29T00:13:31.158Z,16.23
2023-01-29T00:15:58.773Z,13.53
2023-01-29T00:18:26.299Z,13.10
2023-01-29T00:20:53.840Z,16.02
2023-01-29T00:23:21.416Z,13.47
2023-01-29T00:25:48.946Z,11.33
2023-01-29T00:28:16.476Z,12.27
2023-01-29T00:30:45.221Z,12.00
2023-01-29T00:33:12.744Z,11.83
2023-01-29T00:35:41.025Z,13.33
2023-01-29T00:38:08.623Z,12.30
2023-01-29T00:40:36.138Z,11.57
2023-01-29T00:43:22.384Z,12.57
2023-01-29T00:45:49.915Z,12.47
2023-01-29T00:48:17.438Z,12.90
2023-01-29T00:50:45.777Z,12.33
2023-01-29T00:53:13.324Z,12.70
2023-01-29T00:55:40.866Z,13.37
2023-01-29T00:58:08.447Z,12.77
2023-01-29T01:00:35.993Z,12.93
2023-01-29T01:03:06.694Z,12.37
2023-01-29T01:05:34.284Z,13.40
2023-01-29T01:08:02.175Z,13.07
2023-01-29T01:10:29.711Z,13.60
2023-01-29T01:12:57.274Z,14.33
2023-01-29T01:15:24.823Z,13.47
2023-01-29T01:17:55.018Z,13.33
2023-01-29T01:20:22.596Z,12.67
2023-01-29T01:22:50.137Z,14.43
2023-01-29T01:25:18.434Z,13.83
2023-01-29T01:27:46.298Z,14.03
2023-01-29T01:30:14.043Z,14.73
2023-01-29T01:32:42.140Z,13.80
2023-01-29T01:35:09.693Z,14.67
2023-01-29T01:37:39.906Z,13.43
2023-01-29T01:40:07.592Z,13.50
2023-01-29T01:42:35.153Z,13.53
2023-01-29T01:45:02.687Z,18.08
2023-01-29T01:47:30.393Z,14.03
2023-01-29T01:49:57.973Z,13.73
2023-01-29T01:52:25.516Z,13.70
2023-01-29T01:54:53.051Z,13.33
2023-01-29T01:57:20.620Z,13.57
2023-01-29T01:59:48.144Z,13.87
2023-01-29T02:02:33.628Z,12.70
2023-01-29T02:05:19.045Z,14.30
2023-01-29T02:08:04.724Z,13.97
2023-01-29T02:10:32.258Z,17.65
2023-01-29T02:12:59.805Z,17.00
2023-01-29T02:15:27.878Z,14.73
2023-01-29T02:17:56.624Z,13.93
2023-01-29T02:20:26.838Z,13.10
2023-01-29T02:23:31.624Z,12.47
2023-01-29T02:26:04.882Z,12.23
2023-01-29T02:28:35.893Z,15.77
2023-01-29T02:31:21.380Z,12.67
2023-01-29T02:34:07.206Z,16.80
2023-01-29T02:36:34.780Z,12.77
2023-01-29T02:39:08.142Z,13.00
2023-01-29T02:41:36.454Z,12.70
2023-01-29T02:44:25.038Z,12.80
2023-01-29T02:46:58.088Z,11.63
2023-01-29T02:49:28.480Z,15.82
2023-01-29T02:52:07.817Z,13.90
2023-01-29T02:54:41.246Z,12.73
2023-01-29T02:57:11.761Z,16.10
2023-01-29T02:59:40.779Z,14.13
2023-01-29T03:02:08.410Z,12.67
2023-01-29T03:04:36.704Z,12.10
2023-01-29T03:07:04.968Z,12.03
2023-01-29T03:09:37.535Z,13.20
2023-01-29T03:12:08.527Z,11.83
2023-01-29T03:14:41.700Z,11.23
2023-01-29T03:17:09.236Z,11.67
2023-01-29T03:19:39.713Z,10.90
2023-01-29T03:22:07.466Z,10.33
2023-01-29T03:24:58.689Z,11.00
2023-01-29T03:27:50.433Z,11.77
2023-01-29T03:30:36.114Z,11.03
2023-01-29T03:33:03.684Z,15.57
2023-01-29T03:35:34.190Z,12.67
2023-01-29T03:38:01.983Z,15.93
2023-01-29T03:40:30.317Z,12.30
2023-01-29T03:43:06.497Z,13.17
2023-01-29T03:45:52.349Z,12.50
2023-01-29T03:48:34.397Z,10.93
2023-01-29T03:51:17.591Z,12.53
2023-01-29T03:53:48.138Z,14.93
2023-01-29T03:56:18.547Z,11.90
2023-01-29T03:59:10.388Z,12.43
2023-01-29T04:01:37.937Z,11.90
2023-01-29T04:04:14.708Z,11.73
2023-01-29T04:06:42.299Z,11.83
2023-01-29T04:09:09.824Z,11.23
2023-01-29T04:11:37.367Z,15.32
2023-01-29T04:14:04.920Z,13.30
2023-01-29T04:16:32.503Z,12.23
2023-01-29T04:18:59.974Z,11.67
2023-01-29T04:21:27.591Z,11.83
2023-01-29T04:23:55.988Z,11.97
2023-01-29T04:26:28.907Z,12.00
2023-01-29T04:29:15.361Z,12.13
2023-01-29T04:31:45.509Z,12.47
2023-01-29T04:34:37.425Z,11.93
2023-01-29T04:37:10.711Z,12.80
2023-01-29T04:39:38.245Z,12.17
2023-01-29T04:42:08.539Z,11.87
2023-01-29T04:44:47.739Z,12.43
2023-01-29T04:47:18.339Z,12.33
2023-01-29T04:50:06.969Z,11.80
2023-01-29T04:52:34.524Z,12.97
2023-01-29T04:55:04.977Z,12.37
2023-01-29T04:57:48.007Z,13.00
2023-01-29T05:00:18.555Z,12.80
2023-01-29T05:02:45.867Z,12.27
2023-01-29T05:05:13.914Z,12.00
2023-01-29T05:07:41.456Z,11.70
2023-01-29T05:10:09.299Z,11.77
2023-01-29T05:12:36.866Z,11.70
2023-01-29T05:15:04.412Z,12.27
2023-01-29T05:17:31.938Z,11.93
2023-01-29T05:20:00.289Z,11.80
2023-01-29T05:22:27.826Z,13.10
2023-01-29T05:24:55.353Z,13.43
2023-01-29T05:27:44.037Z,13.37
2023-01-29T05:30:11.635Z,13.23
2023-01-29T05:32:39.160Z,13.57
2023-01-29T05:35:06.751Z,18.27
2023-01-29T05:37:34.262Z,14.70
2023-01-29T05:40:01.778Z,14.10
2023-01-29T05:42:30.108Z,14.57
2023-01-29T05:44:57.759Z,14.97
2023-01-29T05:47:25.283Z,14.37
2023-01-29T05:49:53.638Z,15.00
2023-01-29T05:52:21.163Z,14.57
2023-01-29T05:54:48.709Z,15.10
2023-01-29T05:57:16.313Z,15.60
2023-01-29T05:59:43.851Z,15.67
2023-01-29T06:02:11.422Z,16.37
2023-01-29T06:04:38.972Z,21.23
2023-01-29T06:07:06.503Z,16.50
2023-01-29T06:09:34.017Z,16.10
2023-01-29T06:12:01.579Z,17.00
2023-01-29T06:14:29.895Z,16.07
2023-01-29T06:16:57.412Z,15.63
2023-01-29T06:19:25.862Z,15.07
2023-01-29T06:21:53.398Z,15.70
2023-01-29T06:24:20.983Z,20.92
2023-01-29T06:26:48.524Z,16.43
2023-01-29T06:29:16.097Z,15.77
2023-01-29T06:31:43.764Z,16.37
2023-01-29T06:34:11.221Z,16.93
2023-01-29T06:36:38.756Z,16.73
2023-01-29T06:39:06.312Z,17.23
2023-01-29T06:41:33.880Z,17.03
2023-01-29T06:44:01.442Z,23.58
2023-01-29T06:46:29.059Z,19.37
2023-01-29T06:48:59.888Z,17.60
2023-01-29T06:51:27.414Z,17.40
2023-01-29T06:53:54.968Z,23.10
2023-01-29T06:56:22.563Z,24.70
2023-01-29T06:58:50.091Z,19.97
2023-01-29T07:01:34.773Z,18.60
2023-01-29T07:03:45.195Z,18.47
2023-01-29T07:06:12.749Z,18.27
2023-01-29T07:08:40.277Z,18.10
2023-01-29T07:11:08.113Z,18.07
2023-01-29T07:13:35.647Z,17.97
2023-01-29T07:16:03.263Z,23.90
2023-01-29T07:18:30.770Z,24.98
2023-01-29T07:20:58.325Z,20.17
2023-01-29T07:23:25.849Z,19.43
2023-01-29T07:25:54.748Z,19.17
2023-01-29T07:28:22.285Z,19.73
2023-01-29T07:30:49.814Z,26.92
2023-01-29T07:33:17.399Z,26.30
2023-01-29T07:35:45.681Z,22.10
2023-01-29T07:38:13.214Z,20.57
2023-01-29T07:40:41.137Z,20.10
2023-01-29T07:43:08.670Z,19.83
2023-01-29T07:45:36.282Z,20.27
2023-01-29T07:48:06.242Z,20.73
2023-01-29T07:50:33.705Z,19.57
2023-01-29T07:53:01.258Z,18.70
2023-01-29T07:55:29.593Z,19.43
2023-01-29T07:58:00.319Z,18.73
2023-01-29T08:00:27.953Z,25.45
2023-01-29T08:02:55.461Z,25.30
2023-01-29T08:05:22.987Z,22.73
2023-01-29T08:08:05.817Z,25.20
2023-01-29T08:10:20.958Z,19.50
2023-01-29T08:12:48.491Z,19.83
2023-01-29T08:15:16.066Z,18.50
2023-01-29T08:17:57.198Z,19.87
2023-01-29T08:20:12.850Z,18.13
2023-01-29T08:22:40.388Z,19.07
2023-01-29T08:25:08.843Z,18.27
2023-01-29T08:27:35.903Z,18.47
2023-01-29T08:30:03.442Z,17.80
2023-01-29T08:32:31.803Z,19.80
2023-01-29T08:34:59.347Z,18.50
2023-01-29T08:37:26.884Z,18.57
2023-01-29T08:39:55.379Z,20.10
2023-01-29T08:42:22.921Z,19.27
2023-01-29T08:44:50.458Z,20.20
2023-01-29T08:47:18.049Z,20.50
2023-01-29T08:49:46.428Z,19.73
2023-01-29T08:52:13.865Z,19.27
2023-01-29T08:54:42.632Z,19.70
2023-01-29T08:57:10.184Z,19.97
2023-01-29T08:59:38.481Z,20.17
2023-01-29T09:02:06.696Z,20.87
2023-01-29T09:04:34.230Z,19.73
2023-01-29T09:07:01.772Z,20.33
2023-01-29T09:09:29.331Z,19.60
2023-01-29T09:11:56.868Z,21.13
2023-01-29T09:14:25.178Z,21.40
2023-01-29T09:16:52.786Z,21.37
2023-01-29T09:19:20.278Z,20.83
2023-01-29T09:21:47.820Z,19.83
2023-01-29T09:24:16.851Z,20.97
2023-01-29T09:26:44.478Z,21.97
2023-01-29T09:29:11.935Z,20.87
2023-01-29T09:31:39.604Z,22.37
2023-01-29T09:34:07.024Z,21.57
2023-01-29T09:36:34.565Z,21.13
2023-01-29T09:39:02.517Z,20.83
2023-01-29T09:41:48.251Z,27.08
2023-01-29T09:44:19.276Z,22.40
2023-01-29T09:46:46.801Z,19.53
2023-01-29T09:49:32.807Z,28.15
2023-01-29T09:52:02.761Z,21.67
2023-01-29T09:54:55.246Z,19.47
2023-01-29T09:57:28.394Z,21.07
2023-01-29T09:59:56.701Z,20.63
2023-01-29T10:02:42.699Z,19.53
2023-01-29T10:05:22.177Z,20.07
2023-01-29T10:08:07.837Z,20.83
2023-01-29T10:11:05.609Z,27.20
2023-01-29T10:13:44.583Z,21.27
2023-01-29T10:16:31.200Z,20.80
2023-01-29T10:18:59.811Z,20.07
2023-01-29T10:21:54.999Z,20.30
2023-01-29T10:24:37.534Z,20.90
2023-01-29T10:27:05.224Z,21.07
2023-01-29T10:29:32.743Z,21.90
2023-01-29T10:32:00.443Z,20.00
2023-01-29T10:34:39.980Z,21.03
2023-01-29T10:37:07.587Z,21.73
2023-01-29T10:39:35.110Z,26.47
2023-01-29T10:42:23.785Z,21.73
2023-01-29T10:45:13.728Z,21.47
2023-01-29T10:47:41.365Z,21.23
2023-01-29T10:50:46.118Z,21.17
2023-01-29T10:53:35.176Z,19.97
2023-01-29T10:56:33.225Z,20.20
2023-01-29T10:59:03.555Z,25.70
2023-01-29T11:01:31.140Z,21.50
2023-01-29T11:04:01.337Z,20.60
2023-01-29T11:06:31.566Z,20.70
2023-01-29T11:09:14.288Z,20.07
2023-01-29T11:11:53.677Z,20.60
2023-01-29T11:14:27.701Z,21.33
2023-01-29T11:16:55.251Z,20.83
2023-01-29T11:19:38.846Z,21.40
2023-01-29T11:22:06.383Z,22.43
2023-01-29T11:24:33.911Z,20.40
2023-01-29T11:27:02.422Z,21.43
2023-01-29T11:29:48.127Z,22.07
2023-01-29T11:32:15.671Z,21.50
2023-01-29T11:34:58.236Z,21.23
2023-01-29T11:37:32.138Z,21.30
2023-01-29T11:40:00.453Z,22.57
2023-01-29T11:42:27.976Z,21.63
2023-01-29T11:44:56.318Z,22.83
2023-01-29T11:47:26.892Z,23.07
2023-01-29T11:49:54.422Z,21.73
2023-01-29T11:52:22.017Z,21.77
2023-01-29T11:54:59.243Z,26.70
2023-01-29T11:57:26.746Z,22.03
2023-01-29T11:59:54.257Z,20.63
2023-01-29T12:02:24.488Z,27.23
2023-01-29T12:04:52.425Z,27.10
2023-01-29T12:07:19.960Z,27.77
2023-01-29T12:09:59.387Z,24.23
2023-01-29T12:12:27.692Z,21.13
2023-01-29T12:15:16.584Z,21.50
2023-01-29T12:17:44.121Z,21.53
2023-01-29T12:20:14.512Z,22.50
2023-01-29T12:22:57.344Z,21.30
2023-01-29T12:25:36.576Z,19.40
2023-01-29T12:28:15.740Z,21.37
2023-01-29T12:30:57.982Z,20.17
2023-01-29T12:33:28.207Z,20.60
2023-01-29T12:36:00.390Z,19.00
2023-01-29T12:38:27.831Z,19.67
2023-01-29T12:41:08.499Z,20.63
2023-01-29T12:43:50.717Z,20.47
2023-01-29T12:46:26.840Z,25.80
2023-01-29T12:48:54.358Z,20.17
2023-01-29T12:51:21.879Z,21.37
2023-01-29T12:54:05.583Z,19.73
2023-01-29T12:56:33.969Z,20.90
2023-01-29T12:59:01.350Z,18.73
2023-01-29T13:01:35.631Z,20.53
2023-01-29T13:04:12.321Z,20.20
2023-01-29T13:06:39.948Z,20.60
2023-01-29T13:09:07.523Z,26.13
2023-01-29T13:11:47.088Z,21.83
2023-01-29T13:14:14.687Z,24.77
2023-01-29T13:16:42.983Z,21.90
2023-01-29T13:19:13.324Z,20.10
2023-01-29T13:21:40.906Z,19.40
2023-01-29T13:24:17.550Z,20.60
2023-01-29T13:26:46.044Z,26.40
2023-01-29T13:29:25.519Z,26.62
2023-01-29T13:31:53.891Z,21.50
2023-01-29T13:34:21.386Z,22.60
2023-01-29T13:36:51.646Z,27.52
2023-01-29T13:39:31.344Z,21.90
2023-01-29T13:41:58.888Z,21.60
2023-01-29T13:44:35.231Z,22.57
2023-01-29T13:47:02.759Z,20.37
2023-01-29T13:49:39.001Z,28.08
2023-01-29T13:52:28.355Z,22.17
2023-01-29T13:54:58.556Z,22.10
2023-01-29T13:57:44.857Z,22.13
2023-01-29T14:00:22.300Z,18.77
2023-01-29T14:02:55.319Z,21.43
2023-01-29T14:05:31.882Z,21.60
2023-01-29T14:08:14.699Z,20.67
2023-01-29T14:10:42.232Z,20.83
2023-01-29T14:13:18.850Z,20.00
2023-01-29T14:15:46.377Z,20.80
2023-01-29T14:18:20.110Z,20.70
2023-01-29T14:20:53.725Z,19.63
2023-01-29T14:23:24.069Z,19.97
2023-01-29T14:25:51.616Z,20.73
2023-01-29T14:28:26.149Z,20.50
2023-01-29T14:30:53.798Z,21.00
2023-01-29T14:33:42.548Z,20.73
2023-01-29T14:36:14.549Z,21.03
2023-01-29T14:38:47.756Z,20.73
2023-01-29T14:41:30.384Z,21.97
2023-01-29T14:44:31.558Z,19.93
2023-01-29T14:46:59.857Z,19.77
2023-01-29T14:49:53.871Z,19.43
2023-01-29T14:52:33.627Z,21.13
2023-01-29T14:55:01.751Z,19.33
2023-01-29T14:57:29.280Z,26.15
2023-01-29T14:59:57.593Z,21.57
2023-01-29T15:02:28.247Z,20.97
2023-01-29T15:04:55.810Z,20.33
2023-01-29T15:07:28.944Z,20.57
2023-01-29T15:10:22.250Z,20.60
2023-01-29T15:12:45.624Z,21.10
2023-01-29T15:15:27.243Z,19.87
2023-01-29T15:17:58.361Z,20.10
2023-01-29T15:20:35.318Z,20.33
2023-01-29T15:23:02.843Z,21.03
2023-01-29T15:25:33.168Z,21.77
2023-01-29T15:28:00.961Z,20.53
2023-01-29T15:30:31.221Z,24.57
2023-01-29T15:32:58.748Z,25.50
2023-01-29T15:35:31.977Z,20.57
2023-01-29T15:38:08.071Z,19.80
2023-01-29T15:40:35.691Z,20.17
2023-01-29T15:43:03.266Z,20.53
2023-01-29T15:45:33.490Z,25.65
2023-01-29T15:48:10.393Z,21.83
2023-01-29T15:50:38.044Z,20.53
2023-01-29T15:53:06.347Z,19.03
2023-01-29T15:55:33.923Z,19.93
2023-01-29T15:58:01.612Z,20.67
2023-01-29T16:00:29.147Z,19.67
2023-01-29T16:02:56.739Z,23.87
2023-01-29T16:05:30.232Z,20.80
2023-01-29T16:07:57.741Z,24.85
2023-01-29T16:10:26.440Z,20.00
2023-01-29T16:12:53.994Z,19.23
2023-01-29T16:15:30.189Z,19.30
2023-01-29T16:17:57.760Z,18.97
2023-01-29T16:20:37.261Z,18.53
2023-01-29T16:23:04.818Z,18.50
2023-01-29T16:25:32.376Z,20.63
2023-01-29T16:27:59.920Z,19.90
2023-01-29T16:30:27.872Z,19.70
2023-01-29T16:32:55.351Z,25.98
2023-01-29T16:35:22.870Z,22.23
2023-01-29T16:37:51.239Z,22.17
2023-01-29T16:40:30.757Z,22.77
2023-01-29T16:42:58.326Z,21.77
2023-01-29T16:45:25.860Z,27.37
2023-01-29T16:48:02.680Z,23.07
2023-01-29T16:50:46.412Z,23.00
2023-01-29T16:53:13.838Z,21.77
2023-01-29T16:55:41.360Z,28.50
2023-01-29T16:58:21.252Z,23.00
2023-01-29T17:00:51.678Z,23.27
2023-01-29T17:03:19.226Z,20.83
2023-01-29T17:05:47.179Z,20.10
2023-01-29T17:08:17.631Z,21.10
2023-01-29T17:10:45.172Z,20.77
2023-01-29T17:13:13.738Z,25.37
2023-01-29T17:15:43.985Z,20.93
2023-01-29T17:18:23.533Z,19.27
2023-01-29T17:20:51.064Z,19.63
2023-01-29T17:23:18.590Z,18.87
2023-01-29T17:25:46.967Z,24.55
2023-01-29T17:28:15.278Z,21.17
2023-01-29T17:30:44.884Z,19.37
2023-01-29T17:33:16.951Z,21.33
2023-01-29T17:35:44.493Z,21.07
2023-01-29T17:38:24.307Z,20.30
2023-01-29T17:40:40.622Z,20.27
2023-01-29T17:43:08.941Z,19.60
2023-01-29T17:45:36.480Z,19.27
2023-01-29T17:48:04.036Z,19.80
2023-01-29T17:50:31.573Z,18.83
2023-01-29T17:52:59.117Z,18.63
2023-01-29T17:55:26.705Z,17.47
2023-01-29T17:57:54.235Z,23.67
2023-01-29T18:00:21.782Z,19.90
2023-01-29T18:02:49.361Z,20.50
2023-01-29T18:05:17.901Z,24.63
2023-01-29T18:07:45.216Z,19.17
2023-01-29T18:10:13.585Z,19.43
2023-01-29T18:12:41.945Z,19.30
2023-01-29T18:15:09.673Z,19.83
2023-01-29T18:17:37.251Z,18.27
2023-01-29T18:20:04.856Z,18.77
2023-01-29T18:22:32.395Z,23.87
2023-01-29T18:25:00.728Z,19.63
2023-01-29T18:27:28.288Z,18.37
2023-01-29T18:29:55.815Z,19.83
2023-01-29T18:32:23.412Z,21.03
2023-01-29T18:34:50.935Z,24.70
2023-01-29T18:37:18.467Z,23.17
2023-01-29T18:39:46.812Z,22.43
2023-01-29T18:42:14.352Z,20.53
2023-01-29T18:44:41.880Z,17.47
2023-01-29T18:47:09.491Z,16.90
2023-01-29T18:49:37.034Z,16.23
2023-01-29T18:52:04.579Z,17.00
2023-01-29T18:54:32.178Z,17.10
2023-01-29T18:57:12.834Z,16.47
2023-01-29T18:59:27.247Z,22.42
2023-01-29T19:01:55.138Z,17.77
2023-01-29T19:04:22.618Z,16.63
2023-01-29T19:06:50.161Z,16.10
2023-01-29T19:09:17.731Z,15.63
2023-01-29T19:11:45.266Z,16.23
2023-01-29T19:14:12.792Z,16.17
2023-01-29T19:16:40.412Z,16.50
2023-01-29T19:19:07.937Z,18.37
2023-01-29T19:21:35.469Z,16.73
2023-01-29T19:24:04.306Z,16.37
2023-01-29T19:26:31.873Z,16.73
2023-01-29T19:28:59.384Z,16.60
2023-01-29T19:31:27.783Z,17.30
2023-01-29T19:33:55.242Z,17.63
2023-01-29T19:36:22.786Z,17.40
2023-01-29T19:38:50.359Z,17.30
2023-01-29T19:41:17.955Z,17.60
2023-01-29T19:43:45.454Z,16.93
2023-01-29T19:46:13.803Z,17.77
2023-01-29T19:48:41.336Z,16.90
2023-01-29T19:51:08.921Z,16.33
2023-01-29T19:53:36.475Z,21.65
2023-01-29T19:56:06.490Z,18.50
2023-01-29T19:58:34.014Z,23.12
2023-01-29T20:01:02.490Z,19.80
2023-01-29T20:03:29.993Z,19.20
2023-01-29T20:05:57.530Z,19.43
2023-01-29T20:08:25.109Z,19.63
2023-01-29T20:10:52.629Z,18.53
2023-01-29T20:13:20.176Z,17.77
2023-01-29T20:15:47.768Z,18.47
2023-01-29T20:18:15.348Z,17.23
2023-01-29T20:20:45.906Z,16.73
2023-01-29T20:23:15.506Z,22.70
2023-01-29T20:25:41.789Z,20.33
2023-01-29T20:28:09.339Z,18.90
2023-01-29T20:30:37.506Z,16.87
2023-01-29T20:33:05.044Z,17.90
2023-01-29T20:35:32.564Z,16.20
2023-01-29T20:38:00.187Z,17.07
2023-01-29T20:40:27.717Z,18.37
2023-01-29T20:42:55.237Z,17.53
2023-01-29T20:45:22.801Z,18.47
2023-01-29T20:47:51.094Z,16.57
2023-01-29T20:50:19.513Z,17.97
2023-01-29T20:52:47.237Z,17.13
2023-01-29T20:55:15.561Z,18.13
2023-01-29T20:57:43.072Z,16.87
2023-01-29T21:00:11.670Z,17.03
2023-01-29T21:02:39.191Z,16.93
2023-01-29T21:05:06.742Z,17.47
2023-01-29T21:07:34.291Z,18.00
2023-01-29T21:10:01.840Z,17.37
2023-01-29T21:12:29.356Z,22.05
2023-01-29T21:14:57.033Z,19.30
2023-01-29T21:17:26.683Z,17.03
2023-01-29T21:19:52.224Z,17.10
2023-01-29T21:22:19.811Z,16.87
2023-01-29T21:24:47.404Z,17.57
2023-01-29T21:27:14.949Z,16.40
2023-01-29T21:29:42.571Z,16.13
2023-01-29T21:32:10.873Z,17.53
2023-01-29T21:34:38.436Z,17.20
2023-01-29T21:37:06.010Z,17.27
2023-01-29T21:39:33.529Z,17.50
2023-01-29T21:42:19.473Z,17.77
2023-01-29T21:44:46.981Z,17.90
2023-01-29T21:47:14.566Z,16.50
2023-01-29T21:49:43.023Z,19.07
2023-01-29T21:52:11.333Z,17.70
2023-01-29T21:54:38.883Z,18.73
2023-01-29T21:57:06.477Z,18.43
2023-01-29T21:59:34.009Z,17.60
2023-01-29T22:02:01.729Z,23.58
2023-01-29T22:04:29.153Z,19.07
2023-01-29T22:06:56.670Z,19.17
2023-01-29T22:09:24.194Z,19.17
2023-01-29T22:11:52.543Z,17.53
2023-01-29T22:14:20.087Z,17.97
2023-01-29T22:16:47.646Z,18.20
2023-01-29T22:19:15.203Z,18.80
2023-01-29T22:21:43.282Z,18.60
2023-01-29T22:24:10.715Z,18.30
2023-01-29T22:26:38.319Z,18.60
2023-01-29T22:29:05.839Z,18.83
2023-01-29T22:31:33.383Z,17.87
2023-01-29T22:34:00.964Z,19.13
2023-01-29T22:36:28.499Z,18.03
2023-01-29T22:38:56.026Z,17.53
2023-01-29T22:41:24.372Z,17.83
2023-01-29T22:43:51.896Z,17.40
2023-01-29T22:46:19.455Z,18.33
2023-01-29T22:48:47.011Z,18.13
2023-01-29T22:51:14.535Z,17.13
2023-01-29T22:53:54.564Z,18.37
2023-01-29T22:56:22.140Z,18.23
2023-01-29T22:58:52.416Z,18.47
2023-01-29T23:01:20.030Z,18.30
2023-01-29T23:03:47.564Z,19.50
2023-01-29T23:06:15.121Z,19.03
2023-01-29T23:08:42.658Z,21.30
2023-01-29T23:11:15.772Z,19.13
2023-01-29T23:13:48.987Z,18.00
2023-01-29T23:16:16.566Z,18.10
2023-01-29T23:18:44.033Z,18.17
2023-01-29T23:21:11.619Z,18.27
2023-01-29T23:23:39.164Z,18.00
2023-01-29T23:26:24.754Z,17.37
2023-01-29T23:28:52.275Z,17.40
2023-01-29T23:31:20.599Z,17.87
2023-01-29T23:33:48.137Z,18.50
2023-01-29T23:36:15.687Z,18.27
2023-01-29T23:38:43.971Z,18.50
2023-01-29T23:41:11.525Z,18.20
2023-01-29T23:43:39.174Z,17.27
2023-01-29T23:46:06.698Z,17.80
2023-01-29T23:48:34.290Z,18.53
2023-01-29T23:53:19.241Z,20.33
2023-01-29T23:55:46.790Z,24.45
2023-01-29T23:58:14.315Z,19.83
